Ship Status Report: callsign BAREU11

sailwx.info

Track history (hours):
 
Tides and Currents Weather Stations Pressure Air Temp Water Temp Dewpoint Dewpoint Depression Visibility Wind Speed Wind Dir Waves Ship Positions

Callsign BAREU11 (name unknown)

Last reported at 2015-Jan-29 11:00 UTC. Time now 2015-Jan-29 12:26 UTC.
Position N 30°24' W 045°00'.

Barometer 1028.5 mb

Date/timePositionNaut miles runAvg speedWind from/ knotsBaromVisibWave heightAir tempDewpointWater temp
2015-Jan-29 11:00N 30°24' W 045°00'1716.7 1028.5
2015-Jan-29 10:00N 30°18' W 045°18'2019.6 1027.8
2015-Jan-29 09:00N 30°06' W 045°36'1716.7 1027.2
2015-Jan-29 08:00N 30°00' W 045°54'3618.0 1026.7
2015-Jan-29 06:00N 29°42' W 046°30'2019.7 1027.1
2015-Jan-29 05:00N 29°30' W 046°48'2221.7 1026.9
2015-Jan-29 04:00N 29°24' W 047°12'1716.8 1026.7
2015-Jan-29 03:00N 29°18' W 047°30'2019.8 1027.2
2015-Jan-29 02:00N 29°06' W 047°48'1716.8 1027.2
2015-Jan-29 01:00N 29°00' W 048°06'3618.2 1027.2
2015-Jan-28 23:00N 28°42' W 048°42'2019.8 1026.6
2015-Jan-28 22:00N 28°30' W 049°00'1716.9 1025.8
2015-Jan-28 21:00N 28°24' W 049°18'1716.9 1025.2
2015-Jan-28 20:00N 28°18' W 049°36'2019.9 1024.4
2015-Jan-28 19:00N 28°06' W 049°54'2222.0 1023.9
2015-Jan-28 18:00N 28°00' W 050°18'2019.9 1024.1
2015-Jan-28 17:00N 27°48' W 050°36'1717.0 1024.4
2015-Jan-28 16:00N 27°42' W 050°54'2020.0 1025.0
2015-Jan-28 15:00N 27°30' W 051°12'1717.1 1025.6
2015-Jan-28 14:00N 27°24' W 051°30'1717.1 1025.6
2015-Jan-28 13:00N 27°18' W 051°48'2020.0 1025.5
2015-Jan-28 12:00N 27°06' W 052°06'3718.4 1024.6
2015-Jan-28 10:00N 26°48' W 052°42'1717.2 1023.8
2015-Jan-28 09:00N 26°42' W 053°00'2020.1
2015-Jan-28 08:00N 26°30' W 053°18'1717.2
2015-Jan-28 07:00N 26°24' W 053°36'2020.1
2015-Jan-28 06:00N 26°12' W 053°54'1717.2
2015-Jan-28 05:00N 26°06' W 054°12'1717.2
2015-Jan-28 04:00N 26°00' W 054°30'2020.2
2015-Jan-28 03:00N 25°48' W 054°48'1717.3
2015-Jan-28 02:00N 25°42' W 055°06'2020.2
2015-Jan-28 01:00N 25°30' W 055°24'2222.5
2015-Jan-28 00:00N 25°24' W 055°48'1616.2
2015-Jan-27 23:00N 25°12' W 056°00'1717.4
2015-Jan-27 22:00N 25°06' W 056°18'2322.6
2015-Jan-27 21:00N 25°00' W 056°42'2020.3
2015-Jan-27 20:00N 24°48' W 057°00'1717.4
2015-Jan-27 19:00N 24°42' W 057°18'2020.3
2015-Jan-27 18:00N 24°30' W 057°36'1717.4
2015-Jan-27 17:00N 24°24' W 057°54'2020.3
2015-Jan-27 16:00N 24°12' W 058°12'1717.5
2015-Jan-27 15:00N 24°06' W 058°30'2020.4
2015-Jan-27 14:00N 23°54' W 058°48'1817.5
2015-Jan-27 13:00N 23°48' W 059°06'2020.4
2015-Jan-27 12:00N 23°36' W 059°24'2322.8
2015-Jan-27 11:00N 23°30' W 059°48'1616.3
2015-Jan-27 10:00N 23°18' W 060°00'2322.9
2015-Jan-27 09:00N 23°12' W 060°24'2020.4
2015-Jan-27 08:00N 23°00' W 060°42'1312.6
2015-Jan-27 07:00N 22°54' W 060°54'1817.6
2015-Jan-27 06:00N 22°48' W 061°12'2020.5
2015-Jan-27 05:00N 22°36' W 061°30'1817.7
2015-Jan-27 04:00N 22°30' W 061°48'2120.5
2015-Jan-27 03:00N 22°18' W 062°06'1817.7
2015-Jan-27 02:00N 22°12' W 062°24'2120.5
2015-Jan-27 01:00N 22°00' W 062°42'1817.7
2015-Jan-27 00:00N 21°54' W 063°00'2120.6
2015-Jan-26 23:00N 21°42' W 063°18'1817.8
2015-Jan-26 22:00N 21°36' W 063°36'2120.6
2015-Jan-26 21:00N 21°24' W 063°54'1817.8
2015-Jan-26 20:00N 21°18' W 064°12'1817.8
2015-Jan-26 19:00N 21°12' W 064°30'2120.6
2015-Jan-26 18:00N 21°00' W 064°48'1817.8
2015-Jan-26 17:00N 20°54' W 065°06'2120.7
2015-Jan-26 16:00N 20°42' W 065°24'1817.9
2015-Jan-26 15:00N 20°36' W 065°42'2120.7
2015-Jan-26 14:00N 20°24' W 066°00'1817.9
2015-Jan-26 13:00N 20°18' W 066°18'2120.7
2015-Jan-26 12:00N 20°06' W 066°36'1312.8
2015-Jan-26 11:00N 20°00' W 066°48'2120.7
2015-Jan-26 10:00N 19°48' W 067°06'1818.0
2015-Jan-26 09:00N 19°42' W 067°24'2524.7
2015-Jan-26 08:00N 19°24' W 067°42'1918.9
2015-Jan-26 07:00N 19°06' W 067°48'1716.5
2015-Jan-26 06:00N 18°54' W 068°00'1918.9
2015-Jan-26 05:00N 18°36' W 068°06'2121.3
2015-Jan-26 04:00N 18°18' W 068°18'1716.6
2015-Jan-26 03:00N 18°06' W 068°30'1818.1
2015-Jan-26 02:00N 18°00' W 068°48'1716.6
2015-Jan-26 01:00N 18°12' W 069°00'1818.1
2015-Jan-26 00:00N 18°18' W 069°18'1818.1
2015-Jan-25 23:00N 18°24' W 069°36'0 0.0
2015-Jan-25 11:00N 18°24' W 069°36'13 6.4
2015-Jan-25 09:00N 18°18' W 069°48'0 0.0
2015-Jan-25 08:00N 18°18' W 069°48'0 0.0
2015-Jan-25 07:00N 18°18' W 069°48'8 0.7
2015-Jan-24 19:00N 18°12' W 069°42'8 8.3
2015-Jan-24 18:00N 18°06' W 069°48'2121.3
2015-Jan-24 17:00N 17°48' W 070°00'1716.6
2015-Jan-24 16:00N 17°36' W 070°12'1716.6
2015-Jan-24 15:00N 17°24' W 070°24'2121.3
2015-Jan-24 14:00N 17°06' W 070°36'1716.6
2015-Jan-24 13:00N 16°54' W 070°48'1716.6
2015-Jan-24 12:00N 16°42' W 071°00'2121.4
2015-Jan-24 11:00N 16°24' W 071°12'1716.6
2015-Jan-24 10:00N 16°12' W 071°24'1313.3
2015-Jan-24 09:00N 16°00' W 071°30'2121.4
2015-Jan-24 08:00N 15°42' W 071°42'1716.7
2015-Jan-24 07:00N 15°30' W 071°54'1716.7
2015-Jan-24 06:00N 15°18' W 072°06'2121.4
2015-Jan-24 05:00N 15°00' W 072°18'1716.7
2015-Jan-24 04:00N 14°48' W 072°30'1716.7
2015-Jan-24 03:00N 14°36' W 072°42'1716.7
2015-Jan-24 02:00N 14°24' W 072°54'1918.9
2015-Jan-24 01:00N 14°06' W 073°00'3316.7
2015-Jan-23 23:00N 13°42' W 073°24'1716.7
2015-Jan-23 22:00N 13°30' W 073°36'2121.5
2015-Jan-23 21:00N 13°12' W 073°48'1716.8
2015-Jan-23 20:00N 13°00' W 074°00'1313.3
2015-Jan-23 19:00N 12°48' W 074°06'2121.5
2015-Jan-23 18:00N 12°30' W 074°18'1716.8
2015-Jan-23 17:00N 12°18' W 074°30'1716.8
2015-Jan-23 16:00N 12°06' W 074°42'1716.8
2015-Jan-23 15:00N 11°54' W 074°54'1918.9
2015-Jan-23 14:00N 11°36' W 075°00'1716.8
2015-Jan-23 13:00N 11°24' W 075°12'1716.8
2015-Jan-23 12:00N 11°12' W 075°24'1716.8
2015-Jan-23 11:00N 11°00' W 075°36'1918.9
2015-Jan-23 10:00N 10°42' W 075°42'1918.9
2015-Jan-23 09:00N 10°24' W 075°48'1313.2
2015-Jan-23 08:00N 10°18' W 075°36'8 0.6
2015-Jan-22 17:00N 10°24' W 075°30'8 8.4
2015-Jan-22 16:00N 10°18' W 075°36'1313.2
2015-Jan-22 15:00N 10°24' W 075°48'1313.2
2015-Jan-22 14:00N 10°30' W 076°00'8 8.4
2015-Jan-22 13:00N 10°36' W 076°06'0 0.0 1012.9
2015-Jan-22 12:00N 10°36' W 076°06'0 0.0 1012.0
2015-Jan-22 11:00N 10°36' W 076°06'6 2.9 1011.1
2015-Jan-22 09:00N 10°36' W 076°00'0 0.0 1010.3
2015-Jan-22 08:00N 10°36' W 076°00'0 0.0 1010.4
2015-Jan-22 07:00N 10°36' W 076°00'6 5.9 1010.6
2015-Jan-22 06:00N 10°36' W 075°54'0 0.0 1011.4
2015-Jan-22 05:00N 10°36' W 075°54'0 0.0 1011.9
2015-Jan-22 04:00N 10°36' W 075°54'0 0.0 1012.0
2015-Jan-22 03:00N 10°36' W 075°54'8 8.4 1011.9
2015-Jan-22 02:00N 10°30' W 075°48'6 5.9 1010.6
2015-Jan-22 01:00N 10°30' W 075°54'8 8.4 1009.7
2015-Jan-22 00:00N 10°24' W 076°00'2121.4 1008.7
2015-Jan-21 23:00N 10°12' W 076°18'1211.8 1008.2
2015-Jan-21 22:00N 10°12' W 076°30'1918.7 1008.1
2015-Jan-21 21:00N 10°06' W 076°48'3618.0 1008.4
2015-Jan-21 19:00N 10°00' W 077°24'1211.8 1009.8
2015-Jan-21 18:00N 10°00' W 077°36'1817.7 1010.9
2015-Jan-21 17:00N 10°00' W 077°54'1918.7 1012.0
2015-Jan-21 16:00N 09°54' W 078°12'1211.8 1013.1
2015-Jan-21 15:00N 09°54' W 078°24'1817.7 1013.3
2015-Jan-21 14:00N 09°54' W 078°42'3618.0 1012.9
2015-Jan-21 12:00N 09°48' W 079°18'1313.3 1011.7
2015-Jan-21 11:00N 09°42' W 079°30'1918.7 1011.2
2015-Jan-21 10:00N 09°36' W 079°48'1313.4 1010.6
2015-Jan-21 09:00N 09°24' W 079°54'0 0.0 1011.1
2015-Jan-20 22:00N 09°24' W 079°54'0 0.0 1010.4
2015-Jan-20 21:00N 09°24' W 079°54'12 2.4 1010.1
2015-Jan-20 16:00N 09°12' W 079°54'8 8.4 1009.6
2015-Jan-20 15:00N 09°06' W 079°48'6 5.9 1009.9
2015-Jan-20 14:00N 09°06' W 079°42'13 2.7 1009.6
2015-Jan-20 09:00N 08°54' W 079°36'13 2.7 1009.9
2015-Jan-20 04:00N 08°48' W 079°24'1818.0 1011.6
2015-Jan-20 03:00N 08°30' W 079°24'1919.0 1010.6
2015-Jan-20 02:00N 08°12' W 079°18'1919.0 1009.7
2015-Jan-20 01:00N 07°54' W 079°24'1818.0 1008.7
2015-Jan-20 00:00N 07°36' W 079°24'1919.0 1008.0
2015-Jan-19 23:00N 07°18' W 079°30'2424.0 1007.9
2015-Jan-19 22:00N 06°54' W 079°30'1919.0 1007.3
2015-Jan-19 21:00N 06°36' W 079°36'1919.0 1007.6
2015-Jan-19 20:00N 06°18' W 079°42'1919.0 1008.3
2015-Jan-19 19:00N 06°00' W 079°48'1818.0 1009.4
2015-Jan-19 18:00N 05°42' W 079°48'1919.0 1010.3
2015-Jan-19 17:00N 05°24' W 079°54'1919.0 1011.4
2015-Jan-19 16:00N 05°06' W 080°00'1818.0 1011.8
2015-Jan-19 15:00N 04°48' W 080°00'2524.7 1012.8
2015-Jan-19 14:00N 04°24' W 080°06'1818.0 1013.0
2015-Jan-19 13:00N 04°06' W 080°06'1919.0 1012.5
2015-Jan-19 12:00N 03°48' W 080°12'1919.0 1011.4
2015-Jan-19 11:00N 03°30' W 080°18'   1011.0
Track history (hours):
 
Tides and Currents Weather Stations Pressure Air Temp Water Temp Dewpoint Dewpoint Depression Visibility Wind Speed Wind Dir Waves Ship Positions

Callsign BAREU11 (name unknown)

Last reported at 2015-Jan-29 11:00 UTC. Time now 2015-Jan-29 12:26 UTC.
Position N 30°24' W 045°00'.

Barometer 1028.5 mb

Date/timePositionNaut miles runAvg speedWind from/ knotsBaromVisibWave heightAir tempDewpointWater temp
2015-Jan-29 11:00N 30°24' W 045°00'1716.7 1028.5
2015-Jan-29 10:00N 30°18' W 045°18'2019.6 1027.8
2015-Jan-29 09:00N 30°06' W 045°36'1716.7 1027.2
2015-Jan-29 08:00N 30°00' W 045°54'3618.0 1026.7
2015-Jan-29 06:00N 29°42' W 046°30'2019.7 1027.1
2015-Jan-29 05:00N 29°30' W 046°48'2221.7 1026.9
2015-Jan-29 04:00N 29°24' W 047°12'1716.8 1026.7
2015-Jan-29 03:00N 29°18' W 047°30'2019.8 1027.2
2015-Jan-29 02:00N 29°06' W 047°48'1716.8 1027.2
2015-Jan-29 01:00N 29°00' W 048°06'3618.2 1027.2
2015-Jan-28 23:00N 28°42' W 048°42'2019.8 1026.6
2015-Jan-28 22:00N 28°30' W 049°00'1716.9 1025.8
2015-Jan-28 21:00N 28°24' W 049°18'1716.9 1025.2
2015-Jan-28 20:00N 28°18' W 049°36'2019.9 1024.4
2015-Jan-28 19:00N 28°06' W 049°54'2222.0 1023.9
2015-Jan-28 18:00N 28°00' W 050°18'2019.9 1024.1
2015-Jan-28 17:00N 27°48' W 050°36'1717.0 1024.4
2015-Jan-28 16:00N 27°42' W 050°54'2020.0 1025.0
2015-Jan-28 15:00N 27°30' W 051°12'1717.1 1025.6
2015-Jan-28 14:00N 27°24' W 051°30'1717.1 1025.6
2015-Jan-28 13:00N 27°18' W 051°48'2020.0 1025.5
2015-Jan-28 12:00N 27°06' W 052°06'3718.4 1024.6
2015-Jan-28 10:00N 26°48' W 052°42'1717.2 1023.8
2015-Jan-28 09:00N 26°42' W 053°00'2020.1
2015-Jan-28 08:00N 26°30' W 053°18'1717.2
2015-Jan-28 07:00N 26°24' W 053°36'2020.1
2015-Jan-28 06:00N 26°12' W 053°54'1717.2
2015-Jan-28 05:00N 26°06' W 054°12'1717.2
2015-Jan-28 04:00N 26°00' W 054°30'2020.2
2015-Jan-28 03:00N 25°48' W 054°48'1717.3
2015-Jan-28 02:00N 25°42' W 055°06'2020.2
2015-Jan-28 01:00N 25°30' W 055°24'2222.5
2015-Jan-28 00:00N 25°24' W 055°48'1616.2
2015-Jan-27 23:00N 25°12' W 056°00'1717.4
2015-Jan-27 22:00N 25°06' W 056°18'2322.6
2015-Jan-27 21:00N 25°00' W 056°42'2020.3
2015-Jan-27 20:00N 24°48' W 057°00'1717.4
2015-Jan-27 19:00N 24°42' W 057°18'2020.3
2015-Jan-27 18:00N 24°30' W 057°36'1717.4
2015-Jan-27 17:00N 24°24' W 057°54'2020.3
2015-Jan-27 16:00N 24°12' W 058°12'1717.5
2015-Jan-27 15:00N 24°06' W 058°30'2020.4
2015-Jan-27 14:00N 23°54' W 058°48'1817.5
2015-Jan-27 13:00N 23°48' W 059°06'2020.4
2015-Jan-27 12:00N 23°36' W 059°24'2322.8
2015-Jan-27 11:00N 23°30' W 059°48'1616.3
2015-Jan-27 10:00N 23°18' W 060°00'2322.9
2015-Jan-27 09:00N 23°12' W 060°24'2020.4
2015-Jan-27 08:00N 23°00' W 060°42'1312.6
2015-Jan-27 07:00N 22°54' W 060°54'1817.6
2015-Jan-27 06:00N 22°48' W 061°12'2020.5
2015-Jan-27 05:00N 22°36' W 061°30'1817.7
2015-Jan-27 04:00N 22°30' W 061°48'2120.5
2015-Jan-27 03:00N 22°18' W 062°06'1817.7
2015-Jan-27 02:00N 22°12' W 062°24'2120.5
2015-Jan-27 01:00N 22°00' W 062°42'1817.7
2015-Jan-27 00:00N 21°54' W 063°00'2120.6
2015-Jan-26 23:00N 21°42' W 063°18'1817.8
2015-Jan-26 22:00N 21°36' W 063°36'2120.6
2015-Jan-26 21:00N 21°24' W 063°54'1817.8
2015-Jan-26 20:00N 21°18' W 064°12'1817.8
2015-Jan-26 19:00N 21°12' W 064°30'2120.6
2015-Jan-26 18:00N 21°00' W 064°48'1817.8
2015-Jan-26 17:00N 20°54' W 065°06'2120.7
2015-Jan-26 16:00N 20°42' W 065°24'1817.9
2015-Jan-26 15:00N 20°36' W 065°42'2120.7
2015-Jan-26 14:00N 20°24' W 066°00'1817.9
2015-Jan-26 13:00N 20°18' W 066°18'2120.7
2015-Jan-26 12:00N 20°06' W 066°36'1312.8
2015-Jan-26 11:00N 20°00' W 066°48'2120.7
2015-Jan-26 10:00N 19°48' W 067°06'1818.0
2015-Jan-26 09:00N 19°42' W 067°24'2524.7
2015-Jan-26 08:00N 19°24' W 067°42'1918.9
2015-Jan-26 07:00N 19°06' W 067°48'1716.5
2015-Jan-26 06:00N 18°54' W 068°00'1918.9
2015-Jan-26 05:00N 18°36' W 068°06'2121.3
2015-Jan-26 04:00N 18°18' W 068°18'1716.6
2015-Jan-26 03:00N 18°06' W 068°30'1818.1
2015-Jan-26 02:00N 18°00' W 068°48'1716.6
2015-Jan-26 01:00N 18°12' W 069°00'1818.1
2015-Jan-26 00:00N 18°18' W 069°18'1818.1
2015-Jan-25 23:00N 18°24' W 069°36'0 0.0
2015-Jan-25 11:00N 18°24' W 069°36'13 6.4
2015-Jan-25 09:00N 18°18' W 069°48'0 0.0
2015-Jan-25 08:00N 18°18' W 069°48'0 0.0
2015-Jan-25 07:00N 18°18' W 069°48'8 0.7
2015-Jan-24 19:00N 18°12' W 069°42'8 8.3
2015-Jan-24 18:00N 18°06' W 069°48'2121.3
2015-Jan-24 17:00N 17°48' W 070°00'1716.6
2015-Jan-24 16:00N 17°36' W 070°12'1716.6
2015-Jan-24 15:00N 17°24' W 070°24'2121.3
2015-Jan-24 14:00N 17°06' W 070°36'1716.6
2015-Jan-24 13:00N 16°54' W 070°48'1716.6
2015-Jan-24 12:00N 16°42' W 071°00'2121.4
2015-Jan-24 11:00N 16°24' W 071°12'1716.6
2015-Jan-24 10:00N 16°12' W 071°24'1313.3
2015-Jan-24 09:00N 16°00' W 071°30'2121.4
2015-Jan-24 08:00N 15°42' W 071°42'1716.7
2015-Jan-24 07:00N 15°30' W 071°54'1716.7
2015-Jan-24 06:00N 15°18' W 072°06'2121.4
2015-Jan-24 05:00N 15°00' W 072°18'1716.7
2015-Jan-24 04:00N 14°48' W 072°30'1716.7
2015-Jan-24 03:00N 14°36' W 072°42'1716.7
2015-Jan-24 02:00N 14°24' W 072°54'1918.9
2015-Jan-24 01:00N 14°06' W 073°00'3316.7
2015-Jan-23 23:00N 13°42' W 073°24'1716.7
2015-Jan-23 22:00N 13°30' W 073°36'2121.5
2015-Jan-23 21:00N 13°12' W 073°48'1716.8
2015-Jan-23 20:00N 13°00' W 074°00'1313.3
2015-Jan-23 19:00N 12°48' W 074°06'2121.5
2015-Jan-23 18:00N 12°30' W 074°18'1716.8
2015-Jan-23 17:00N 12°18' W 074°30'1716.8
2015-Jan-23 16:00N 12°06' W 074°42'1716.8
2015-Jan-23 15:00N 11°54' W 074°54'1918.9
2015-Jan-23 14:00N 11°36' W 075°00'1716.8
2015-Jan-23 13:00N 11°24' W 075°12'1716.8
2015-Jan-23 12:00N 11°12' W 075°24'1716.8
2015-Jan-23 11:00N 11°00' W 075°36'1918.9
2015-Jan-23 10:00N 10°42' W 075°42'1918.9
2015-Jan-23 09:00N 10°24' W 075°48'1313.2
2015-Jan-23 08:00N 10°18' W 075°36'8 0.6
2015-Jan-22 17:00N 10°24' W 075°30'8 8.4
2015-Jan-22 16:00N 10°18' W 075°36'1313.2
2015-Jan-22 15:00N 10°24' W 075°48'1313.2
2015-Jan-22 14:00N 10°30' W 076°00'8 8.4
2015-Jan-22 13:00N 10°36' W 076°06'0 0.0 1012.9
2015-Jan-22 12:00N 10°36' W 076°06'0 0.0 1012.0
2015-Jan-22 11:00N 10°36' W 076°06'6 2.9 1011.1
2015-Jan-22 09:00N 10°36' W 076°00'0 0.0 1010.3
2015-Jan-22 08:00N 10°36' W 076°00'0 0.0 1010.4
2015-Jan-22 07:00N 10°36' W 076°00'6 5.9 1010.6
2015-Jan-22 06:00N 10°36' W 075°54'0 0.0 1011.4
2015-Jan-22 05:00N 10°36' W 075°54'0 0.0 1011.9
2015-Jan-22 04:00N 10°36' W 075°54'0 0.0 1012.0
2015-Jan-22 03:00N 10°36' W 075°54'8 8.4 1011.9
2015-Jan-22 02:00N 10°30' W 075°48'6 5.9 1010.6
2015-Jan-22 01:00N 10°30' W 075°54'8 8.4 1009.7
2015-Jan-22 00:00N 10°24' W 076°00'2121.4 1008.7
2015-Jan-21 23:00N 10°12' W 076°18'1211.8 1008.2
2015-Jan-21 22:00N 10°12' W 076°30'1918.7 1008.1
2015-Jan-21 21:00N 10°06' W 076°48'3618.0 1008.4
2015-Jan-21 19:00N 10°00' W 077°24'1211.8 1009.8
2015-Jan-21 18:00N 10°00' W 077°36'1817.7 1010.9
2015-Jan-21 17:00N 10°00' W 077°54'1918.7 1012.0
2015-Jan-21 16:00N 09°54' W 078°12'1211.8 1013.1
2015-Jan-21 15:00N 09°54' W 078°24'1817.7 1013.3
2015-Jan-21 14:00N 09°54' W 078°42'3618.0 1012.9
2015-Jan-21 12:00N 09°48' W 079°18'1313.3 1011.7
2015-Jan-21 11:00N 09°42' W 079°30'1918.7 1011.2
2015-Jan-21 10:00N 09°36' W 079°48'1313.4 1010.6
2015-Jan-21 09:00N 09°24' W 079°54'0 0.0 1011.1
2015-Jan-20 22:00N 09°24' W 079°54'0 0.0 1010.4
2015-Jan-20 21:00N 09°24' W 079°54'12 2.4 1010.1
2015-Jan-20 16:00N 09°12' W 079°54'8 8.4 1009.6
2015-Jan-20 15:00N 09°06' W 079°48'6 5.9 1009.9
2015-Jan-20 14:00N 09°06' W 079°42'13 2.7 1009.6
2015-Jan-20 09:00N 08°54' W 079°36'13 2.7 1009.9
2015-Jan-20 04:00N 08°48' W 079°24'1818.0 1011.6
2015-Jan-20 03:00N 08°30' W 079°24'1919.0 1010.6
2015-Jan-20 02:00N 08°12' W 079°18'1919.0 1009.7
2015-Jan-20 01:00N 07°54' W 079°24'1818.0 1008.7
2015-Jan-20 00:00N 07°36' W 079°24'1919.0 1008.0
2015-Jan-19 23:00N 07°18' W 079°30'2424.0 1007.9
2015-Jan-19 22:00N 06°54' W 079°30'1919.0 1007.3
2015-Jan-19 21:00N 06°36' W 079°36'1919.0 1007.6
2015-Jan-19 20:00N 06°18' W 079°42'1919.0 1008.3
2015-Jan-19 19:00N 06°00' W 079°48'1818.0 1009.4
2015-Jan-19 18:00N 05°42' W 079°48'1919.0 1010.3
2015-Jan-19 17:00N 05°24' W 079°54'1919.0 1011.4
2015-Jan-19 16:00N 05°06' W 080°00'1818.0 1011.8
2015-Jan-19 15:00N 04°48' W 080°00'2524.7 1012.8
2015-Jan-19 14:00N 04°24' W 080°06'1818.0 1013.0
2015-Jan-19 13:00N 04°06' W 080°06'1919.0 1012.5
2015-Jan-19 12:00N 03°48' W 080°12'1919.0 1011.4
2015-Jan-19 11:00N 03°30' W 080°18'   1011.0

Dump ship's entire track history